createdAt,value
2022-08-07T00:00:25.991Z,99.90
2022-08-07T00:02:53.795Z,99.90
2022-08-07T00:05:21.278Z,99.90
2022-08-07T00:07:59.717Z,99.90
2022-08-07T00:10:29.604Z,99.90
2022-08-07T00:13:00.957Z,99.90
2022-08-07T00:15:38.383Z,99.90
2022-08-07T00:18:19.464Z,99.90
2022-08-07T00:20:49.206Z,99.90
2022-08-07T00:23:17.029Z,99.90
2022-08-07T00:25:45.748Z,99.90
2022-08-07T00:28:22.040Z,99.90
2022-08-07T00:30:49.381Z,99.90
2022-08-07T00:33:16.687Z,99.90
2022-08-07T00:35:49.088Z,99.90
2022-08-07T00:38:16.664Z,99.90
2022-08-07T00:40:59.634Z,99.90
2022-08-07T00:44:01.580Z,99.90
2022-08-07T00:46:14.351Z,99.90
2022-08-07T00:48:42.430Z,99.90
2022-08-07T00:51:11.996Z,99.90
2022-08-07T00:53:50.200Z,99.90
2022-08-07T00:56:18.511Z,99.90
2022-08-07T00:58:46.702Z,99.90
2022-08-07T01:01:16.067Z,99.90
2022-08-07T01:03:56.411Z,99.90
2022-08-07T01:06:29.213Z,99.90
2022-08-07T01:08:59.346Z,99.90
2022-08-07T01:12:09.387Z,99.90
2022-08-07T01:14:21.290Z,99.90
2022-08-07T01:16:57.096Z,99.90
2022-08-07T01:19:27.258Z,99.90
2022-08-07T01:21:59.336Z,99.90
2022-08-07T01:24:31.836Z,99.90
2022-08-07T01:27:03.570Z,99.90
2022-08-07T01:29:33.929Z,99.90
2022-08-07T01:32:05.497Z,99.90
2022-08-07T01:34:44.477Z,99.90
2022-08-07T01:37:17.357Z,99.90
2022-08-07T01:39:47.728Z,99.90
2022-08-07T01:42:38.748Z,99.90
2022-08-07T01:45:18.416Z,99.90
2022-08-07T01:48:20.560Z,99.90
2022-08-07T01:50:43.290Z,99.90
2022-08-07T01:53:21.058Z,99.90
2022-08-07T01:56:02.549Z,99.90
2022-08-07T01:58:37.498Z,99.90
2022-08-07T02:01:25.485Z,99.90
2022-08-07T02:04:11.429Z,99.90
2022-08-07T02:06:44.226Z,99.90
2022-08-07T02:09:33.887Z,99.90
2022-08-07T02:12:18.030Z,99.90
2022-08-07T02:14:56.552Z,99.90
2022-08-07T02:17:37.484Z,99.90
2022-08-07T02:20:09.440Z,99.90
2022-08-07T02:22:46.317Z,99.90
2022-08-07T02:25:17.255Z,99.90
2022-08-07T02:27:56.669Z,99.90
2022-08-07T02:30:25.661Z,99.90
2022-08-07T02:33:00.104Z,99.90
2022-08-07T02:36:29.121Z,99.90
2022-08-07T02:38:28.073Z,99.90
2022-08-07T02:41:03.971Z,99.90
2022-08-07T02:43:36.204Z,99.90
2022-08-07T02:46:07.424Z,99.90
2022-08-07T02:48:36.023Z,99.90
2022-08-07T02:51:28.817Z,99.90
2022-08-07T02:54:02.944Z,99.90
2022-08-07T02:56:33.122Z,99.90
2022-08-07T02:59:03.968Z,99.90
2022-08-07T03:01:36.123Z,99.90
2022-08-07T03:04:12.964Z,99.90
2022-08-07T03:06:45.834Z,99.90
2022-08-07T03:09:14.535Z,99.90
2022-08-07T03:12:04.055Z,99.90
2022-08-07T03:14:36.213Z,99.90
2022-08-07T03:17:04.978Z,99.90
2022-08-07T03:19:37.056Z,99.90
2022-08-07T03:22:06.792Z,99.90
2022-08-07T03:24:34.530Z,99.90
2022-08-07T03:27:09.113Z,99.90
2022-08-07T03:29:50.476Z,99.90
2022-08-07T03:32:26.954Z,99.90
2022-08-07T03:35:16.692Z,99.90
2022-08-07T03:37:55.026Z,99.90
2022-08-07T03:40:36.025Z,99.90
2022-08-07T03:43:13.559Z,99.90
2022-08-07T03:45:48.488Z,99.90
2022-08-07T03:48:19.821Z,99.90
2022-08-07T03:50:56.302Z,99.90
2022-08-07T03:54:32.959Z,99.90
2022-08-07T03:56:33.031Z,99.90
2022-08-07T03:59:12.772Z,99.90
2022-08-07T04:01:45.347Z,99.90
2022-08-07T04:04:17.354Z,99.90
2022-08-07T04:06:46.688Z,99.90
2022-08-07T04:09:19.718Z,99.90
2022-08-07T04:12:25.500Z,99.90
2022-08-07T04:14:43.669Z,99.90
2022-08-07T04:17:20.321Z,99.90
2022-08-07T04:19:54.442Z,99.90
2022-08-07T04:22:29.394Z,99.90
2022-08-07T04:25:01.166Z,99.90
2022-08-07T04:27:35.718Z,99.90
2022-08-07T04:30:35.743Z,99.90
2022-08-07T04:33:10.157Z,99.90
2022-08-07T04:35:50.429Z,99.90
2022-08-07T04:38:24.991Z,99.90
2022-08-07T04:40:56.879Z,99.90
2022-08-07T04:44:12.929Z,99.90
2022-08-07T04:47:04.947Z,99.90
2022-08-07T04:49:37.706Z,99.90
2022-08-07T04:52:19.775Z,99.90
2022-08-07T04:55:15.558Z,99.90
2022-08-07T04:58:42.419Z,99.90
2022-08-07T05:01:18.331Z,99.90
2022-08-07T05:04:06.531Z,99.90
2022-08-07T05:07:01.263Z,99.90
2022-08-07T05:10:16.627Z,99.90
2022-08-07T05:14:45.570Z,99.90
2022-08-07T05:15:55.236Z,99.90
2022-08-07T05:18:29.671Z,99.90
2022-08-07T05:21:04.032Z,99.90
2022-08-07T05:23:45.523Z,99.90
2022-08-07T05:26:24.010Z,99.90
2022-08-07T05:28:59.235Z,99.90
2022-08-07T05:31:38.306Z,99.90
2022-08-07T05:34:12.860Z,99.90
2022-08-07T05:36:49.161Z,99.90
2022-08-07T05:40:05.098Z,99.90
2022-08-07T05:42:15.055Z,99.90
2022-08-07T05:45:04.341Z,99.90
2022-08-07T05:48:01.862Z,99.90
2022-08-07T05:50:31.730Z,99.90
2022-08-07T05:53:01.512Z,99.90
2022-08-07T05:56:02.129Z,99.90
2022-08-07T05:58:17.331Z,99.90
2022-08-07T06:01:10.500Z,99.90
2022-08-07T06:03:57.189Z,99.90
2022-08-07T06:06:32.780Z,99.90
2022-08-07T06:09:05.028Z,99.90
2022-08-07T06:11:35.613Z,99.90
2022-08-07T06:14:11.952Z,99.90
2022-08-07T06:16:50.774Z,99.90
2022-08-07T06:19:51.905Z,99.90
2022-08-07T06:22:23.848Z,99.90
2022-08-07T06:25:02.864Z,99.90
2022-08-07T06:27:59.818Z,99.90
2022-08-07T06:30:31.800Z,99.90
2022-08-07T06:33:15.650Z,99.90
2022-08-07T06:35:45.509Z,99.90
2022-08-07T06:38:20.048Z,99.90
2022-08-07T06:40:52.888Z,99.90
2022-08-07T06:43:24.228Z,99.90
2022-08-07T06:46:13.169Z,99.90
2022-08-07T06:48:44.712Z,99.90
2022-08-07T06:51:33.101Z,99.90
2022-08-07T06:55:27.860Z,99.90
2022-08-07T06:56:56.391Z,99.60
2022-08-07T07:00:14.348Z,99.40
2022-08-07T07:02:53.820Z,99.10
2022-08-07T07:06:03.103Z,98.70
2022-08-07T07:08:06.927Z,98.40
2022-08-07T07:10:35.380Z,98.10
2022-08-07T07:13:17.135Z,98.30
2022-08-07T07:16:11.111Z,97.50
2022-08-07T07:18:48.305Z,97.00
2022-08-07T07:21:40.448Z,96.60
2022-08-07T07:24:17.554Z,95.90
2022-08-07T07:26:51.855Z,95.70
2022-08-07T07:29:55.964Z,95.60
2022-08-07T07:32:25.154Z,95.00
2022-08-07T07:34:59.222Z,94.70
2022-08-07T07:37:47.296Z,94.90
2022-08-07T07:40:18.876Z,94.80
2022-08-07T07:42:51.359Z,94.10
2022-08-07T07:46:36.788Z,94.10
2022-08-07T07:48:35.345Z,93.30
2022-08-07T07:51:07.856Z,93.20
2022-08-07T07:53:51.929Z,93.10
2022-08-07T07:56:30.398Z,92.90
2022-08-07T07:59:01.987Z,92.50
2022-08-07T08:02:01.999Z,92.40
2022-08-07T08:04:20.178Z,92.20
2022-08-07T08:06:53.742Z,92.60
2022-08-07T08:09:24.504Z,91.30
2022-08-07T08:12:01.742Z,90.60
2022-08-07T08:14:36.526Z,90.30
2022-08-07T08:18:36.532Z,87.30
2022-08-07T08:20:26.173Z,87.90
2022-08-07T08:23:18.169Z,87.30
2022-08-07T08:26:08.240Z,87.10
2022-08-07T08:28:45.279Z,85.50
2022-08-07T08:31:22.683Z,83.80
2022-08-07T08:33:59.018Z,83.80
2022-08-07T08:36:30.460Z,82.70
2022-08-07T08:39:01.867Z,81.50
2022-08-07T08:41:59.419Z,81.30
2022-08-07T08:44:53.770Z,82.30
2022-08-07T08:47:29.665Z,81.80
2022-08-07T08:50:17.590Z,80.00
2022-08-07T08:53:14.789Z,78.40
2022-08-07T08:55:58.694Z,78.90
2022-08-07T08:59:06.357Z,77.60
2022-08-07T09:01:46.733Z,76.30
2022-08-07T09:04:40.455Z,74.00
2022-08-07T09:07:57.584Z,74.30
2022-08-07T09:10:31.817Z,75.00
2022-08-07T09:13:16.765Z,74.40
2022-08-07T09:16:25.160Z,71.80
2022-08-07T09:19:07.304Z,72.30
2022-08-07T09:24:28.309Z,71.60
2022-08-07T09:25:17.661Z,69.40
2022-08-07T09:30:01.889Z,67.90
2022-08-07T09:31:13.448Z,67.20
2022-08-07T09:34:03.587Z,66.40
2022-08-07T09:36:49.806Z,64.50
2022-08-07T09:39:55.249Z,67.00
2022-08-07T09:42:33.808Z,63.90
2022-08-07T09:47:25.279Z,63.20
2022-08-07T09:48:19.482Z,63.30
2022-08-07T09:51:02.454Z,64.90
2022-08-07T09:53:41.363Z,64.80
2022-08-07T09:56:53.222Z,63.20
2022-08-07T09:59:46.486Z,63.60
2022-08-07T10:02:37.125Z,64.70
2022-08-07T10:05:59.539Z,67.10
2022-08-07T10:08:27.994Z,62.60
2022-08-07T10:11:59.542Z,64.20
2022-08-07T10:14:06.970Z,66.80
2022-08-07T10:16:41.332Z,66.00
2022-08-07T10:19:38.449Z,64.30
2022-08-07T10:22:33.532Z,62.40
2022-08-07T10:25:12.668Z,63.40
2022-08-07T10:28:26.073Z,65.50
2022-08-07T10:30:52.890Z,66.50
2022-08-07T10:34:05.887Z,66.60
2022-08-07T10:36:41.071Z,60.60
2022-08-07T10:39:57.215Z,62.90
2022-08-07T10:42:57.550Z,62.50
2022-08-07T10:45:44.888Z,64.00
2022-08-07T10:48:36.602Z,63.70
2022-08-07T10:51:57.547Z,63.70
2022-08-07T10:54:04.514Z,63.20
2022-08-07T10:56:43.363Z,62.30
2022-08-07T10:59:24.448Z,60.60
2022-08-07T11:02:32.795Z,59.80
2022-08-07T11:05:35.876Z,61.10
2022-08-07T11:08:31.499Z,60.80
2022-08-07T11:11:24.494Z,58.40
2022-08-07T11:14:44.286Z,58.90
2022-08-07T11:17:42.757Z,58.20
2022-08-07T11:20:22.490Z,60.20
2022-08-07T11:23:30.724Z,61.30
2022-08-07T11:26:48.165Z,61.10
2022-08-07T11:29:42.712Z,59.50
2022-08-07T11:32:25.307Z,61.00
2022-08-07T11:34:59.866Z,59.00
2022-08-07T11:37:58.099Z,61.40
2022-08-07T11:40:57.969Z,58.80
2022-08-07T11:43:54.491Z,58.80
2022-08-07T11:46:48.746Z,56.90
2022-08-07T11:50:25.163Z,52.50
2022-08-07T11:52:40.079Z,53.60
2022-08-07T11:55:18.995Z,54.60
2022-08-07T11:58:49.622Z,52.00
2022-08-07T12:01:59.998Z,50.70
2022-08-07T12:05:15.244Z,50.40
2022-08-07T12:08:07.241Z,51.50
2022-08-07T12:11:08.093Z,50.70
2022-08-07T12:13:47.539Z,51.10
2022-08-07T12:16:36.658Z,50.00
2022-08-07T12:19:56.320Z,51.10
2022-08-07T12:22:38.621Z,52.00
2022-08-07T12:26:05.901Z,52.20
2022-08-07T12:29:05.895Z,50.30
2022-08-07T12:32:01.730Z,47.70
2022-08-07T12:34:40.891Z,44.50
2022-08-07T12:37:16.552Z,44.70
2022-08-07T12:39:52.166Z,43.00
2022-08-07T12:42:31.930Z,42.60
2022-08-07T12:45:06.483Z,40.10
2022-08-07T12:48:04.576Z,39.60
2022-08-07T12:51:00.364Z,40.40
2022-08-07T12:54:37.238Z,40.10
2022-08-07T12:56:55.245Z,38.90
2022-08-07T12:59:54.903Z,41.30
2022-08-07T13:02:33.790Z,41.20
2022-08-07T13:06:04.557Z,41.40
2022-08-07T13:08:38.960Z,40.90
2022-08-07T13:12:02.243Z,42.60
2022-08-07T13:14:37.613Z,44.30
2022-08-07T13:17:23.690Z,44.80
2022-08-07T13:20:08.241Z,46.60
2022-08-07T13:22:52.754Z,45.40
2022-08-07T13:25:32.049Z,47.30
2022-08-07T13:28:13.378Z,45.40
2022-08-07T13:30:49.092Z,46.30
2022-08-07T13:34:33.060Z,45.10
2022-08-07T13:36:40.894Z,44.30
2022-08-07T13:39:49.204Z,44.60
2022-08-07T13:42:10.458Z,43.60
2022-08-07T13:44:39.726Z,47.50
2022-08-07T13:47:15.862Z,46.90
2022-08-07T13:50:32.541Z,48.20
2022-08-07T13:52:44.573Z,47.50
2022-08-07T13:55:26.717Z,47.10
2022-08-07T13:58:28.162Z,48.90
2022-08-07T14:01:10.963Z,48.90
2022-08-07T14:04:07.755Z,48.70
2022-08-07T14:06:44.405Z,47.90
2022-08-07T14:10:02.461Z,48.20
2022-08-07T14:12:27.366Z,45.60
2022-08-07T14:15:18.675Z,46.50
2022-08-07T14:18:15.939Z,46.50
2022-08-07T14:20:42.383Z,45.10
2022-08-07T14:23:58.582Z,44.10
2022-08-07T14:26:30.364Z,44.10
2022-08-07T14:29:10.609Z,44.70
2022-08-07T14:31:56.154Z,45.00
2022-08-07T14:34:29.740Z,42.00
2022-08-07T14:37:03.714Z,43.00
2022-08-07T14:40:15.466Z,43.10
2022-08-07T14:42:31.541Z,43.40
2022-08-07T14:47:53.006Z,42.20
2022-08-07T14:53:16.414Z,42.80
2022-08-07T14:56:08.662Z,42.60
2022-08-07T14:58:42.944Z,41.80
2022-08-07T15:04:05.821Z,41.80
2022-08-07T15:06:35.629Z,40.90
2022-08-07T15:09:58.529Z,41.10
2022-08-07T15:12:04.807Z,42.10
2022-08-07T15:14:36.003Z,41.70
2022-08-07T15:17:32.821Z,42.90
2022-08-07T15:20:55.624Z,42.40
2022-08-07T15:26:22.772Z,45.40
